Time;durP1;ratioP1;P1;durP2;ratioP2;P2;SDS_P1;SDS_P2;PMS_P1;PMS_P2;Temp;Humidity;BMP_temperature;BMP_pressure;BME280_temperature;BME280_humidity;BME280_pressure;Samples;Min_cycle;Max_cycle;Signal;HPM_P1;HPM_P2
2021/09/20 00:00:48;;;;;;;2.75;1.77;;;14.30;99.90;;;;;;5053685;28;20104;-72
2021/09/20 00:03:14;;;;;;;2.53;1.80;;;14.40;99.90;;;;;;5053311;28;20056;-73
2021/09/20 00:05:40;;;;;;;5.95;2.00;;;14.30;99.90;;;;;;5052716;28;20025;-71
2021/09/20 00:08:06;;;;;;;2.85;1.83;;;14.50;99.90;;;;;;5053042;28;20516;-71
2021/09/20 00:10:31;;;;;;;2.22;2.03;;;14.50;99.90;;;;;;5053232;28;20051;-72
2021/09/20 00:12:57;;;;;;;2.58;1.70;;;14.50;99.90;;;;;;5052513;28;20033;-72
2021/09/20 00:15:23;;;;;;;2.53;2.33;;;14.40;99.90;;;;;;5052672;28;20074;-71
2021/09/20 00:17:49;;;;;;;2.05;1.90;;;14.60;99.90;;;;;;5097935;22;20045;-75
2021/09/20 00:20:15;;;;;;;2.65;2.40;;;14.60;99.90;;;;;;5044901;28;20013;-75
2021/09/20 00:22:42;;;;;;;2.30;2.20;;;14.70;99.90;;;;;;5053374;28;20025;-75
2021/09/20 00:25:08;;;;;;;3.08;2.50;;;14.70;99.90;;;;;;5051653;28;20018;-77
2021/09/20 00:27:34;;;;;;;5.53;2.50;;;14.60;99.90;;;;;;5053089;28;20082;-76
2021/09/20 00:30:00;;;;;;;3.15;2.95;;;14.50;99.90;;;;;;5053323;28;20060;-76
2021/09/20 00:32:26;;;;;;;3.35;3.05;;;14.40;99.90;;;;;;5053192;28;20024;-76
2021/09/20 00:34:52;;;;;;;3.65;2.97;;;14.40;99.90;;;;;;5053002;28;20021;-76
2021/09/20 00:37:18;;;;;;;2.97;2.78;;;14.50;99.90;;;;;;5053316;28;20075;-75
2021/09/20 00:39:43;;;;;;;2.35;1.95;;;14.50;99.90;;;;;;5053332;28;20462;-76
2021/09/20 00:42:09;;;;;;;2.20;2.00;;;14.40;99.90;;;;;;5053391;28;20441;-76
2021/09/20 00:44:35;;;;;;;3.42;2.22;;;14.40;99.90;;;;;;5054995;28;20391;-75
2021/09/20 00:47:01;;;;;;;1.95;1.77;;;14.40;99.90;;;;;;5075385;28;20037;-76
2021/09/20 00:49:27;;;;;;;4.32;1.88;;;14.40;99.90;;;;;;5035615;28;20033;-76
2021/09/20 00:51:52;;;;;;;2.00;1.90;;;14.40;99.90;;;;;;5033033;28;20029;-77
2021/09/20 00:54:18;;;;;;;2.75;1.75;;;14.20;99.90;;;;;;5032556;28;20033;-76
2021/09/20 00:56:44;;;;;;;2.20;2.00;;;14.10;99.90;;;;;;5033153;28;20520;-76
2021/09/20 00:59:10;;;;;;;2.13;2.03;;;14.30;99.90;;;;;;5033185;28;20033;-76
2021/09/20 01:01:36;;;;;;;5.18;3.85;;;14.40;99.90;;;;;;5033039;28;20060;-76
2021/09/20 01:04:02;;;;;;;4.07;3.38;;;14.50;99.90;;;;;;5031605;28;20057;-76
2021/09/20 01:06:28;;;;;;;4.30;4.00;;;14.50;99.90;;;;;;5032423;28;20045;-76
2021/09/20 01:08:53;;;;;;;5.05;4.55;;;14.70;99.90;;;;;;5031535;28;20428;-76
2021/09/20 01:11:20;;;;;;;5.20;4.70;;;14.60;99.90;;;;;;5031961;28;20022;-77
2021/09/20 01:13:45;;;;;;;7.40;5.43;;;14.70;99.90;;;;;;5033150;28;20391;-77
2021/09/20 01:16:11;;;;;;;6.80;5.25;;;14.50;99.90;;;;;;5033432;28;20021;-76
2021/09/20 01:18:37;;;;;;;4.70;4.30;;;14.40;99.90;;;;;;5032088;28;20034;-76
2021/09/20 01:21:03;;;;;;;6.03;5.43;;;14.30;99.90;;;;;;5032418;28;20442;-76
2021/09/20 01:23:28;;;;;;;5.45;5.05;;;14.40;99.90;;;;;;5031444;28;20022;-76
2021/09/20 01:25:54;;;;;;;7.07;5.43;;;14.50;99.90;;;;;;5031494;28;20083;-76
2021/09/20 01:28:20;;;;;;;5.85;5.28;;;14.60;99.90;;;;;;5032023;28;20033;-77
2021/09/20 01:30:46;;;;;;;5.28;4.78;;;14.70;99.90;;;;;;5032310;28;20056;-75
2021/09/20 01:33:11;;;;;;;6.13;5.20;;;14.70;99.90;;;;;;5030696;28;20021;-75
2021/09/20 01:35:37;;;;;;;5.97;5.07;;;14.70;99.90;;;;;;5031661;28;20056;-76
2021/09/20 01:38:03;;;;;;;7.22;5.20;;;14.80;99.90;;;;;;5032155;28;20056;-75
2021/09/20 01:40:29;;;;;;;5.45;4.95;;;14.70;99.90;;;;;;5031831;28;20101;-75
2021/09/20 01:42:55;;;;;;;5.82;5.32;;;14.70;99.90;;;;;;5030785;28;20480;-77
2021/09/20 01:45:20;;;;;;;5.82;5.32;;;14.70;99.90;;;;;;5031359;28;20098;-75
2021/09/20 01:47:46;;;;;;;5.10;4.70;;;14.60;99.90;;;;;;5031780;28;20468;-76
2021/09/20 01:50:13;;;;;;;5.45;4.95;;;14.60;99.90;;;;;;5030670;28;20075;-77
2021/09/20 01:52:40;;;;;;;4.82;4.45;;;14.50;99.90;;;;;;5032109;28;20044;-76
2021/09/20 01:55:07;;;;;;;6.13;4.97;;;14.50;99.90;;;;;;5031211;28;20490;-76
2021/09/20 01:57:33;;;;;;;5.72;5.20;;;14.50;99.90;;;;;;5031889;28;20026;-76
2021/09/20 01:59:59;;;;;;;6.25;5.57;;;14.70;99.90;;;;;;5030744;28;20032;-77
2021/09/20 02:02:25;;;;;;;6.10;5.50;;;14.80;99.90;;;;;;5031282;28;20026;-77
2021/09/20 02:04:50;;;;;;;5.22;4.82;;;14.90;99.90;;;;;;5031289;28;20026;-77
2021/09/20 02:07:16;;;;;;;4.85;4.45;;;14.80;99.90;;;;;;5032228;28;20033;-76
2021/09/20 02:09:42;;;;;;;5.05;4.60;;;14.80;99.90;;;;;;5033765;28;20025;-77
2021/09/20 02:12:08;;;;;;;5.50;5.07;;;14.80;99.90;;;;;;5031209;28;20026;-77
2021/09/20 02:14:33;;;;;;;7.30;4.85;;;14.90;99.90;;;;;;5029763;28;20080;-78
2021/09/20 02:16:59;;;;;;;7.22;6.05;;;14.90;99.90;;;;;;5031709;28;20022;-77
2021/09/20 02:19:25;;;;;;;6.50;5.88;;;14.60;99.90;;;;;;5031335;28;20033;-77
2021/09/20 02:21:50;;;;;;;6.32;5.53;;;14.50;99.90;;;;;;5031825;28;20482;-76
2021/09/20 02:24:16;;;;;;;6.70;6.10;;;14.50;99.90;;;;;;5031346;28;20044;-76
2021/09/20 02:26:42;;;;;;;6.50;5.75;;;14.40;99.90;;;;;;5031621;28;20032;-77
2021/09/20 02:29:07;;;;;;;6.75;5.20;;;14.40;99.90;;;;;;5031498;28;20372;-77
2021/09/20 02:31:33;;;;;;;5.63;4.60;;;14.30;99.90;;;;;;5031594;28;20413;-77
2021/09/20 02:33:59;;;;;;;5.13;4.63;;;14.20;99.90;;;;;;5031256;28;20607;-76
2021/09/20 02:36:25;;;;;;;4.78;4.38;;;14.10;99.90;;;;;;5034249;28;20100;-76
2021/09/20 02:38:51;;;;;;;9.18;4.70;;;14.20;99.90;;;;;;5035165;28;20045;-76
2021/09/20 02:41:17;;;;;;;5.93;4.95;;;14.20;99.90;;;;;;5034145;28;20079;-76
2021/09/20 02:43:43;;;;;;;6.80;4.90;;;14.30;99.90;;;;;;5035312;28;20037;-77
2021/09/20 02:46:09;;;;;;;5.88;5.38;;;14.40;99.90;;;;;;5033849;28;20056;-77
2021/09/20 02:48:35;;;;;;;6.05;5.45;;;14.30;99.90;;;;;;5035409;28;20080;-77
2021/09/20 02:51:01;;;;;;;6.72;5.18;;;14.30;99.90;;;;;;5035547;28;20021;-76
2021/09/20 02:53:27;;;;;;;6.25;5.63;;;14.30;99.90;;;;;;5035528;28;20033;-76
2021/09/20 02:55:53;;;;;;;6.47;5.88;;;14.40;99.90;;;;;;5033626;28;20109;-76
2021/09/20 02:58:19;;;;;;;11.10;6.68;;;14.50;99.90;;;;;;5035148;28;20103;-77
2021/09/20 03:00:44;;;;;;;7.65;6.43;;;14.50;99.90;;;;;;5035242;28;20480;-77
2021/09/20 03:03:10;;;;;;;7.13;6.43;;;14.50;99.90;;;;;;5033923;28;20528;-77
2021/09/20 03:05:37;;;;;;;10.82;6.78;;;14.40;99.90;;;;;;5034435;28;20480;-76
2021/09/20 03:08:04;;;;;;;7.72;7.03;;;14.40;99.90;;;;;;5033612;28;20095;-77
2021/09/20 03:10:30;;;;;;;7.07;6.38;;;14.30;99.90;;;;;;5034910;28;20021;-76
2021/09/20 03:12:55;;;;;;;9.40;7.55;;;14.20;99.90;;;;;;5033654;28;20490;-76
2021/09/20 03:15:21;;;;;;;7.80;7.00;;;14.20;99.90;;;;;;5033171;28;20370;-76
2021/09/20 03:17:48;;;;;;;7.25;6.60;;;14.30;99.90;;;;;;5034583;28;20037;-76
2021/09/20 03:20:15;;;;;;;8.60;7.25;;;14.30;99.90;;;;;;5034801;28;20048;-75
2021/09/20 03:22:40;;;;;;;9.43;7.07;;;14.50;99.90;;;;;;5034732;28;20025;-77
2021/09/20 03:25:07;;;;;;;7.13;6.43;;;14.50;99.90;;;;;;5034365;28;20092;-76
2021/09/20 03:27:33;;;;;;;7.20;6.55;;;14.60;99.90;;;;;;5034914;28;20025;-75
2021/09/20 03:29:59;;;;;;;7.20;6.50;;;14.40;99.90;;;;;;5035175;28;20412;-77
2021/09/20 03:32:25;;;;;;;10.55;6.70;;;14.40;99.90;;;;;;5033740;28;20392;-75
2021/09/20 03:34:50;;;;;;;8.35;6.75;;;14.50;99.90;;;;;;5032606;28;20601;-76
2021/09/20 03:37:16;;;;;;;9.98;7.22;;;14.40;99.90;;;;;;5033165;28;20116;-77
2021/09/20 03:39:42;;;;;;;7.53;6.85;;;14.40;99.90;;;;;;5034379;28;20018;-76
2021/09/20 03:42:07;;;;;;;8.55;7.75;;;14.30;99.90;;;;;;5033350;28;20029;-77
2021/09/20 03:44:33;;;;;;;7.32;6.45;;;14.40;99.90;;;;;;5033720;28;20021;-76
2021/09/20 03:46:59;;;;;;;7.72;6.90;;;14.30;99.90;;;;;;5033137;28;20033;-77
2021/09/20 03:49:25;;;;;;;9.15;7.38;;;14.20;99.90;;;;;;5033952;28;20104;-78
2021/09/20 03:51:51;;;;;;;9.07;7.10;;;14.40;99.90;;;;;;5034235;28;20525;-76
2021/09/20 03:54:16;;;;;;;9.40;8.05;;;14.40;99.90;;;;;;5032269;28;20029;-76
2021/09/20 03:56:42;;;;;;;9.32;8.32;;;14.40;99.90;;;;;;5034111;28;20395;-77
2021/09/20 03:59:08;;;;;;;10.55;8.07;;;14.30;99.90;;;;;;5032850;28;20021;-75
2021/09/20 04:01:33;;;;;;;9.93;8.32;;;14.20;99.90;;;;;;5034317;28;20105;-76
2021/09/20 04:03:59;;;;;;;8.52;7.63;;;14.10;99.90;;;;;;5032549;28;20032;-75
2021/09/20 04:06:25;;;;;;;7.95;7.25;;;14.10;99.90;;;;;;5033406;28;20109;-76
2021/09/20 04:08:52;;;;;;;10.93;7.57;;;14.10;99.90;;;;;;5033690;28;20036;-76
2021/09/20 04:11:18;;;;;;;7.25;6.55;;;14.20;99.90;;;;;;5033762;28;20562;-77
2021/09/20 04:13:43;;;;;;;9.10;7.50;;;14.20;99.90;;;;;;5032634;28;20108;-76
2021/09/20 04:16:09;;;;;;;7.85;7.05;;;14.20;99.90;;;;;;5034495;28;20021;-79
2021/09/20 04:18:35;;;;;;;7.00;6.38;;;14.10;99.90;;;;;;5038341;28;20029;-80
2021/09/20 04:21:01;;;;;;;7.65;6.95;;;13.90;99.90;;;;;;5037699;28;20446;-79
2021/09/20 04:23:26;;;;;;;8.35;7.43;;;13.90;99.90;;;;;;5039055;28;20029;-79
2021/09/20 04:25:53;;;;;;;8.43;7.20;;;14.00;99.90;;;;;;5040584;28;20049;-80
2021/09/20 04:28:19;;;;;;;8.95;7.38;;;14.00;99.90;;;;;;5043568;28;20028;-78
2021/09/20 04:30:45;;;;;;;9.63;8.23;;;14.20;99.90;;;;;;5044260;28;20025;-77
2021/09/20 04:33:13;;;;;;;10.00;8.25;;;14.20;99.90;;;;;;5042092;28;20079;-79
2021/09/20 04:35:40;;;;;;;11.15;8.60;;;14.30;99.90;;;;;;5038857;28;20025;-79
2021/09/20 04:38:06;;;;;;;11.25;8.45;;;14.40;99.90;;;;;;5040480;28;20424;-78
2021/09/20 04:40:33;;;;;;;9.20;8.23;;;14.40;99.90;;;;;;5048044;28;20021;-77
2021/09/20 04:42:59;;;;;;;10.65;8.25;;;14.30;99.90;;;;;;5046973;28;20030;-77
2021/09/20 04:45:24;;;;;;;11.95;8.50;;;14.30;99.90;;;;;;5036558;28;20044;-78
2021/09/20 04:47:50;;;;;;;10.52;8.13;;;14.20;99.90;;;;;;5036007;28;20033;-78
2021/09/20 04:50:16;;;;;;;8.45;7.65;;;14.10;99.90;;;;;;5036180;28;20028;-79
2021/09/20 04:52:41;;;;;;;9.05;8.15;;;14.10;99.90;;;;;;5037885;28;20499;-79
2021/09/20 04:55:07;;;;;;;10.10;8.50;;;14.20;99.90;;;;;;5036523;28;20037;-77
2021/09/20 04:57:33;;;;;;;9.27;8.38;;;14.20;99.90;;;;;;5040200;28;20025;-77
2021/09/20 04:59:59;;;;;;;9.93;8.63;;;14.20;99.90;;;;;;5045910;28;20026;-78
2021/09/20 05:02:25;;;;;;;9.73;8.73;;;14.30;99.90;;;;;;5044993;28;20064;-77
2021/09/20 05:04:50;;;;;;;11.88;8.95;;;14.30;99.90;;;;;;5042708;28;20025;-80
2021/09/20 05:07:16;;;;;;;10.98;9.07;;;14.20;99.90;;;;;;5038841;28;20052;-79
2021/09/20 05:09:42;;;;;;;9.07;7.95;;;14.20;99.90;;;;;;5032926;28;20039;-84
2021/09/20 05:12:07;;;;;;;10.45;8.20;;;14.10;99.90;;;;;;5040409;28;20055;-85
2021/09/20 05:14:33;;;;;;;9.05;8.13;;;14.10;99.90;;;;;;5044593;28;20018;-85
2021/09/20 05:16:59;;;;;;;9.18;8.00;;;14.00;99.90;;;;;;5040950;28;20021;-84
2021/09/20 05:19:25;;;;;;;9.65;7.95;;;14.00;99.90;;;;;;5040912;28;20040;-84
2021/09/20 05:21:52;;;;;;;8.55;7.75;;;14.10;99.90;;;;;;5040403;28;20036;-85
2021/09/20 05:24:17;;;;;;;9.25;7.75;;;14.20;99.90;;;;;;5042463;28;20031;-82
2021/09/20 05:26:43;;;;;;;11.77;9.52;;;14.20;99.90;;;;;;5039466;28;20025;-83
2021/09/20 05:29:09;;;;;;;9.50;8.60;;;14.30;99.90;;;;;;5045639;28;20415;-85
2021/09/20 05:31:35;;;;;;;11.85;9.13;;;14.30;99.90;;;;;;5038313;28;20037;-84
2021/09/20 05:34:00;;;;;;;9.75;7.97;;;14.30;99.90;;;;;;5042971;28;20026;-83
2021/09/20 05:36:26;;;;;;;10.57;9.40;;;14.30;99.90;;;;;;5044556;28;20064;-84
2021/09/20 05:38:52;;;;;;;9.88;8.20;;;14.20;99.90;;;;;;5043108;28;20026;-85
2021/09/20 05:41:17;;;;;;;10.77;8.98;;;14.30;99.90;;;;;;5052911;28;20029;-83
2021/09/20 05:43:43;;;;;;;11.38;8.88;;;14.30;99.90;;;;;;5054684;28;20025;-84
2021/09/20 05:46:09;;;;;;;11.15;8.52;;;14.40;99.90;;;;;;5039874;28;20014;-84
2021/09/20 05:48:35;;;;;;;8.82;7.93;;;14.50;99.90;;;;;;5049369;28;20017;-83
2021/09/20 05:51:00;;;;;;;10.02;8.52;;;14.40;99.90;;;;;;5050817;28;20051;-84
2021/09/20 05:53:26;;;;;;;9.15;8.25;;;14.50;99.90;;;;;;5053302;28;20025;-84
2021/09/20 05:55:52;;;;;;;9.68;7.78;;;14.40;99.90;;;;;;5051947;28;20033;-84
2021/09/20 05:58:17;;;;;;;13.50;8.65;;;14.40;99.90;;;;;;5054344;28;20081;-84
2021/09/20 06:00:43;;;;;;;10.18;8.07;;;14.40;99.90;;;;;;5054502;28;20030;-85
2021/09/20 06:03:10;;;;;;;8.02;7.32;;;14.40;99.90;;;;;;5048479;28;20341;-86
2021/09/20 06:05:39;;;;;;;10.20;8.15;;;14.50;99.90;;;;;;5054730;28;20069;-83
2021/09/20 06:08:06;;;;;;;12.80;8.50;;;14.60;99.90;;;;;;5055349;28;20080;-85
2021/09/20 06:10:33;;;;;;;8.93;7.97;;;14.60;99.90;;;;;;5053525;28;20029;-84
2021/09/20 06:12:59;;;;;;;10.77;8.20;;;14.70;99.90;;;;;;5056787;28;20064;-84
2021/09/20 06:15:24;;;;;;;9.68;7.15;;;14.80;99.90;;;;;;5059128;28;20005;-85
2021/09/20 06:17:50;;;;;;;7.60;6.80;;;14.70;99.90;;;;;;5054604;28;20663;-84
2021/09/20 06:20:16;;;;;;;8.52;7.28;;;14.70;99.90;;;;;;5050939;28;20025;-83
2021/09/20 06:22:41;;;;;;;8.27;7.40;;;14.80;99.90;;;;;;5134619;23;20045;-75
2021/09/20 06:25:09;;;;;;;8.18;7.05;;;14.90;99.90;;;;;;5042560;28;20451;-74
2021/09/20 06:27:35;;;;;;;12.93;7.35;;;14.90;99.90;;;;;;5033863;28;20120;-74
2021/09/20 06:30:04;;;;;;;11.70;6.75;;;14.80;99.90;;;;;;5034883;28;20029;-74
2021/09/20 06:32:29;;;;;;;11.07;7.00;;;14.80;99.90;;;;;;5034864;28;20039;-74
2021/09/20 06:34:55;;;;;;;8.40;7.10;;;14.80;99.90;;;;;;5034303;28;20533;-73
2021/09/20 06:37:21;;;;;;;7.38;6.68;;;14.70;99.90;;;;;;5034681;28;20371;-74
2021/09/20 06:39:47;;;;;;;9.55;7.53;;;14.70;99.90;;;;;;5034616;28;20029;-73
2021/09/20 06:42:12;;;;;;;11.27;7.18;;;15.00;99.90;;;;;;5035120;28;20122;-73
2021/09/20 06:44:38;;;;;;;7.10;6.40;;;15.10;99.90;;;;;;5033941;28;20426;-75
2021/09/20 06:47:04;;;;;;;10.20;7.53;;;15.30;99.90;;;;;;5035124;28;20037;-73
2021/09/20 06:49:29;;;;;;;10.63;7.00;;;15.30;99.90;;;;;;5034855;28;20025;-72
2021/09/20 06:51:55;;;;;;;7.68;6.80;;;15.50;99.90;;;;;;5037811;28;20021;-75
2021/09/20 06:54:21;;;;;;;9.98;7.38;;;15.50;99.90;;;;;;5053841;28;20021;-75
2021/09/20 06:56:48;;;;;;;8.60;7.22;;;15.60;99.90;;;;;;5064200;28;20025;-76
2021/09/20 06:59:14;;;;;;;10.20;8.00;;;15.70;99.90;;;;;;5074117;28;20088;-77
2021/09/20 07:01:40;;;;;;;7.88;7.07;;;15.60;99.90;;;;;;5072345;28;20036;-76
2021/09/20 07:04:06;;;;;;;10.27;7.13;;;15.70;99.90;;;;;;5066157;28;20036;-76
2021/09/20 07:06:32;;;;;;;7.07;6.47;;;15.80;99.90;;;;;;5043055;28;20036;-76
2021/09/20 07:08:58;;;;;;;8.10;7.03;;;15.80;99.90;;;;;;5037438;28;20099;-75
2021/09/20 07:11:24;;;;;;;8.20;7.07;;;15.80;99.90;;;;;;5035733;28;20026;-76
2021/09/20 07:13:50;;;;;;;7.30;6.57;;;15.90;99.90;;;;;;5039764;28;20051;-75
2021/09/20 07:16:16;;;;;;;7.10;6.40;;;16.00;99.90;;;;;;5053046;28;20129;-75
2021/09/20 07:18:42;;;;;;;7.85;6.95;;;16.10;99.90;;;;;;5052909;28;20036;-74
2021/09/20 07:21:08;;;;;;;10.23;8.43;;;16.40;99.90;;;;;;5053988;28;20490;-77
2021/09/20 07:23:34;;;;;;;7.72;6.78;;;16.60;99.90;;;;;;5053579;28;20037;-76
2021/09/20 07:26:00;;;;;;;7.97;7.18;;;16.70;99.90;;;;;;5053066;28;20025;-76
2021/09/20 07:28:25;;;;;;;9.18;8.27;;;16.60;99.90;;;;;;5052606;28;20025;-76
2021/09/20 07:30:51;;;;;;;8.07;7.30;;;16.20;99.90;;;;;;5037430;28;20080;-76
2021/09/20 07:33:18;;;;;;;8.48;7.68;;;16.10;99.90;;;;;;5032902;28;20045;-75
2021/09/20 07:35:44;;;;;;;8.73;7.80;;;16.00;99.90;;;;;;5033290;28;20079;-73
2021/09/20 07:38:10;;;;;;;8.90;8.00;;;15.90;99.90;;;;;;5033637;28;20021;-75
2021/09/20 07:40:36;;;;;;;11.10;7.97;;;15.70;99.90;;;;;;5034138;28;20096;-75
2021/09/20 07:43:03;;;;;;;9.60;8.32;;;15.70;99.90;;;;;;5032369;28;20026;-74
2021/09/20 07:45:29;;;;;;;10.07;8.43;;;15.70;99.90;;;;;;5032745;28;20029;-74
2021/09/20 07:47:55;;;;;;;10.55;7.47;;;15.90;99.90;;;;;;5033667;28;20053;-73
2021/09/20 07:50:22;;;;;;;8.98;8.18;;;16.10;99.90;;;;;;5033074;28;20064;-73
2021/09/20 07:52:48;;;;;;;9.85;8.20;;;16.10;99.90;;;;;;5043658;28;20462;-74
2021/09/20 07:55:15;;;;;;;9.43;7.60;;;16.20;99.90;;;;;;5052918;28;20104;-74
2021/09/20 07:57:41;;;;;;;8.65;7.80;;;16.50;99.90;;;;;;5053306;28;20036;-74
2021/09/20 08:00:09;;;;;;;8.02;7.22;;;16.70;99.90;;;;;;5053576;28;20029;-78
2021/09/20 08:02:35;;;;;;;11.25;8.25;;;16.80;99.90;;;;;;5052055;28;20071;-74
2021/09/20 08:05:01;;;;;;;12.65;6.55;;;16.90;99.90;;;;;;5052297;28;20518;-75
2021/09/20 08:09:46;;;;;;;9.68;7.00;;;17.50;99.90;;;;;;5068825;28;20408;-75
2021/09/20 08:12:12;;;;;;;9.82;8.13;;;17.80;99.90;;;;;;5067500;28;20028;-75
2021/09/20 08:14:39;;;;;;;12.13;8.02;;;17.80;99.90;;;;;;5068566;28;20024;-76
2021/09/20 08:17:04;;;;;;;9.52;8.52;;;17.40;99.90;;;;;;5067847;28;20100;-75
2021/09/20 08:19:30;;;;;;;8.90;7.55;;;17.00;99.90;;;;;;5069081;28;20115;-78
2021/09/20 08:21:56;;;;;;;12.05;8.50;;;17.10;99.90;;;;;;5064910;28;20108;-76
2021/09/20 08:24:21;;;;;;;12.38;8.60;;;16.80;99.90;;;;;;5048157;28;20041;-76
2021/09/20 08:26:47;;;;;;;8.05;7.30;;;16.60;99.90;;;;;;5048184;28;20029;-76
2021/09/20 08:29:13;;;;;;;10.30;7.35;;;16.60;99.90;;;;;;5047310;28;20025;-74
2021/09/20 08:31:38;;;;;;;10.68;7.68;;;16.70;99.90;;;;;;5048771;28;20029;-74
2021/09/20 08:34:04;;;;;;;9.27;7.57;;;16.80;99.90;;;;;;5048445;28;20033;-76
2021/09/20 08:36:30;;;;;;;8.15;7.40;;;16.80;99.90;;;;;;5058090;28;20075;-74
2021/09/20 08:38:55;;;;;;;8.43;7.63;;;16.90;99.90;;;;;;5067651;28;20028;-74
2021/09/20 08:41:21;;;;;;;8.38;7.55;;;17.00;99.90;;;;;;5068269;28;20040;-75
2021/09/20 08:43:47;;;;;;;8.70;7.78;;;17.10;99.90;;;;;;5068118;28;20033;-74
2021/09/20 08:46:13;;;;;;;9.38;7.60;;;17.10;99.90;;;;;;5066974;28;20025;-74
2021/09/20 08:48:46;;;;;;;9.88;7.55;;;16.80;99.90;;;;;;5067750;28;20033;-74
2021/09/20 08:51:13;;;;;;;8.95;7.60;;;16.90;99.90;;;;;;5067948;28;20491;-74
2021/09/20 08:53:40;;;;;;;11.98;7.32;;;16.90;99.90;;;;;;5055257;28;20029;-74
2021/09/20 08:56:06;;;;;;;6.75;6.05;;;17.10;99.90;;;;;;5057961;28;20029;-74
2021/09/20 08:58:32;;;;;;;9.95;7.65;;;17.20;99.90;;;;;;5061952;28;20020;-74
2021/09/20 09:00:58;;;;;;;7.43;6.72;;;17.40;99.90;;;;;;5068038;28;20666;-75
2021/09/20 09:03:27;;;;;;;8.60;7.30;;;17.40;99.90;;;;;;5066790;28;20044;-71
2021/09/20 09:05:53;;;;;;;7.55;6.30;;;17.90;99.90;;;;;;5067054;28;20024;-72
2021/09/20 09:08:24;;;;;;;6.15;5.40;;;18.10;99.90;;;;;;5066930;28;20025;-71
2021/09/20 09:11:17;;;;;;;7.07;6.47;;;18.20;99.90;;;;;;5067595;28;20029;-71
2021/09/20 09:13:46;;;;;;;6.80;6.03;;;18.30;99.90;;;;;;5068265;28;20479;-73
2021/09/20 09:16:12;;;;;;;7.03;6.32;;;18.40;99.90;;;;;;5067501;28;20032;-71
2021/09/20 09:18:57;;;;;;;8.10;5.65;;;18.80;99.90;;;;;;5068144;28;20025;-72
2021/09/20 09:21:26;;;;;;;6.85;6.25;;;19.20;99.90;;;;;;5054244;28;20033;-72
2021/09/20 09:24:03;;;;;;;5.90;5.40;;;19.50;99.90;;;;;;5034701;28;20052;-72
2021/09/20 09:26:29;;;;;;;5.90;5.32;;;19.40;99.90;;;;;;5033688;28;20037;-70
2021/09/20 09:29:09;;;;;;;5.13;4.63;;;19.10;99.90;;;;;;5034274;28;20025;-71
2021/09/20 09:31:37;;;;;;;5.45;4.95;;;19.10;99.90;;;;;;5034155;28;20018;-70
2021/09/20 09:34:21;;;;;;;6.10;5.45;;;18.80;99.90;;;;;;5034168;28;20479;-69
2021/09/20 09:36:47;;;;;;;5.63;4.55;;;18.80;99.90;;;;;;5034025;28;20052;-75
2021/09/20 09:39:13;;;;;;;5.32;4.78;;;19.00;99.90;;;;;;5039679;28;20058;-74
2021/09/20 09:41:42;;;;;;;5.93;5.43;;;18.90;99.90;;;;;;5053388;28;20699;-74
2021/09/20 09:44:11;;;;;;;5.72;5.22;;;18.60;99.90;;;;;;5053862;28;20052;-76
2021/09/20 09:46:40;;;;;;;6.55;5.90;;;18.40;99.90;;;;;;5052837;28;20053;-74
2021/09/20 09:49:21;;;;;;;6.95;6.35;;;18.20;99.90;;;;;;5053925;28;20024;-75
2021/09/20 09:52:02;;;;;;;6.50;5.38;;;18.20;99.90;;;;;;5051532;28;20087;-77
2021/09/20 09:54:35;;;;;;;5.07;4.68;;;18.20;99.90;;;;;;5032604;28;20028;-75
2021/09/20 09:57:22;;;;;;;6.50;4.88;;;18.10;99.90;;;;;;5036862;28;20541;-77
2021/09/20 09:59:56;;;;;;;5.20;4.70;;;18.20;99.90;;;;;;5033590;28;20024;-75
2021/09/20 10:02:31;;;;;;;6.45;4.55;;;18.10;99.90;;;;;;5036231;28;20108;-76
2021/09/20 10:05:03;;;;;;;5.38;4.90;;;18.20;99.90;;;;;;5032781;28;20022;-75
2021/09/20 10:07:40;;;;;;;4.97;4.57;;;18.40;99.90;;;;;;5032932;28;20033;-75
2021/09/20 10:10:12;;;;;;;5.20;4.72;;;18.50;99.90;;;;;;5033375;28;20714;-75
2021/09/20 10:12:40;;;;;;;5.22;4.82;;;18.40;99.90;;;;;;5033511;28;20479;-74
2021/09/20 10:15:08;;;;;;;5.20;4.70;;;18.60;99.90;;;;;;5032373;28;20040;-75
2021/09/20 10:17:35;;;;;;;5.10;4.60;;;18.60;99.90;;;;;;5033187;28;20022;-75
2021/09/20 10:20:01;;;;;;;5.00;4.50;;;18.40;99.90;;;;;;5032983;28;20029;-76
2021/09/20 10:22:28;;;;;;;5.30;4.80;;;18.30;99.90;;;;;;5032575;28;20022;-77
2021/09/20 10:24:57;;;;;;;6.40;5.75;;;18.30;99.90;;;;;;5032302;28;20032;-75
2021/09/20 10:27:24;;;;;;;5.40;4.90;;;18.10;99.90;;;;;;5032734;28;20025;-74
2021/09/20 10:29:58;;;;;;;6.15;5.63;;;18.30;99.90;;;;;;5033078;28;20022;-74
2021/09/20 10:32:27;;;;;;;5.05;4.65;;;18.10;99.90;;;;;;5035377;28;20071;-74
2021/09/20 10:35:31;;;;;;;4.88;4.47;;;18.30;99.90;;;;;;5052241;28;20625;-74
2021/09/20 10:38:04;;;;;;;6.13;5.10;;;18.40;99.90;;;;;;5051678;28;20025;-73
2021/09/20 10:40:30;;;;;;;4.40;4.00;;;18.40;99.90;;;;;;5051787;28;20056;-75
2021/09/20 10:43:03;;;;;;;12.25;5.82;;;18.70;99.90;;;;;;5040357;28;20021;-76
2021/09/20 10:45:49;;;;;;;4.78;4.38;;;19.10;99.90;;;;;;5051354;28;20262;-76
2021/09/20 10:48:41;;;;;;;5.15;4.65;;;19.90;99.90;;;;;;5040911;28;20032;-77
2021/09/20 10:51:12;;;;;;;4.53;4.20;;;19.90;99.90;;;;;;5051218;28;20055;-74
2021/09/20 10:53:39;;;;;;;5.18;4.78;;;20.10;99.90;;;;;;5052193;28;20025;-77
2021/09/20 10:56:08;;;;;;;4.30;3.88;;;20.20;99.90;;;;;;5051221;28;20025;-75
2021/09/20 10:58:42;;;;;;;4.90;4.30;;;20.20;99.90;;;;;;5052034;28;20021;-75
2021/09/20 11:01:11;;;;;;;4.65;4.25;;;20.20;99.90;;;;;;5050128;28;20025;-75
2021/09/20 11:03:51;;;;;;;5.32;4.82;;;19.60;99.90;;;;;;5052333;28;20064;-76
2021/09/20 11:06:23;;;;;;;4.78;4.47;;;19.00;99.90;;;;;;5051132;28;20021;-76
2021/09/20 11:08:57;;;;;;;5.28;4.88;;;19.20;99.90;;;;;;5051908;28;20040;-77
2021/09/20 11:11:41;;;;;;;4.75;4.18;;;19.00;99.90;;;;;;5053076;28;20049;-77
2021/09/20 11:14:19;;;;;;;5.32;4.88;;;19.00;99.90;;;;;;5044129;28;20045;-77
2021/09/20 11:16:52;;;;;;;4.80;4.40;;;18.90;99.90;;;;;;5032754;28;20434;-81
2021/09/20 11:19:32;;;;;;;3.92;3.60;;;19.00;99.90;;;;;;5041076;28;20033;-78
2021/09/20 11:22:13;;;;;;;4.55;4.13;;;19.10;99.90;;;;;;5040241;28;20104;-77
2021/09/20 11:24:42;;;;;;;5.65;4.20;;;18.60;99.90;;;;;;5039636;28;20030;-78
2021/09/20 11:27:29;;;;;;;6.00;5.00;;;18.60;99.90;;;;;;5040417;28;20150;-79
2021/09/20 11:29:58;;;;;;;4.68;4.38;;;18.60;99.90;;;;;;5040529;28;20036;-78
2021/09/20 11:32:24;;;;;;;4.68;4.28;;;18.90;99.90;;;;;;5041177;28;20096;-80
2021/09/20 11:34:52;;;;;;;5.85;5.35;;;19.10;99.90;;;;;;5041472;28;20025;-77
2021/09/20 11:37:30;;;;;;;6.45;5.40;;;19.30;99.90;;;;;;5041637;28;20100;-76
2021/09/20 11:39:58;;;;;;;4.90;4.50;;;19.60;99.90;;;;;;5040302;28;20080;-79
2021/09/20 11:42:35;;;;;;;5.90;5.10;;;19.30;99.90;;;;;;5041962;28;20013;-78
2021/09/20 11:45:03;;;;;;;5.00;4.57;;;19.00;99.90;;;;;;5041891;28;20511;-78
2021/09/20 11:47:29;;;;;;;4.28;3.88;;;19.30;99.90;;;;;;5041159;28;20033;-79
2021/09/20 11:50:13;;;;;;;4.90;4.50;;;19.40;99.90;;;;;;5039441;28;20075;-79
2021/09/20 11:52:41;;;;;;;5.65;5.18;;;19.70;99.90;;;;;;5044647;28;20048;-79
2021/09/20 11:55:17;;;;;;;3.72;3.42;;;19.80;99.90;;;;;;5050847;28;20025;-78
2021/09/20 11:57:45;;;;;;;3.95;3.65;;;19.80;99.90;;;;;;5051347;28;20105;-77
2021/09/20 12:00:13;;;;;;;5.78;5.05;;;19.90;99.90;;;;;;5051349;28;20025;-79
2021/09/20 12:02:43;;;;;;;8.55;5.07;;;19.70;99.90;;;;;;5052474;28;20021;-79
2021/09/20 12:05:23;;;;;;;6.00;3.78;;;19.60;99.90;;;;;;5053725;28;20025;-79
2021/09/20 12:07:56;;;;;;;4.63;4.22;;;19.60;99.90;;;;;;5051563;28;20921;-79
2021/09/20 12:10:34;;;;;;;4.38;4.03;;;19.70;99.90;;;;;;5052394;28;20062;-79
2021/09/20 12:13:04;;;;;;;5.65;3.92;;;19.60;99.90;;;;;;5051874;28;20090;-78
2021/09/20 12:15:35;;;;;;;4.68;4.05;;;19.40;99.90;;;;;;5030456;28;20065;-75
2021/09/20 12:18:13;;;;;;;5.32;4.53;;;19.50;99.90;;;;;;5030998;28;20101;-75
2021/09/20 12:20:39;;;;;;;4.43;4.03;;;19.60;99.90;;;;;;5031217;28;20040;-75
2021/09/20 12:23:14;;;;;;;4.55;3.88;;;19.70;99.90;;;;;;5030670;28;20101;-77
2021/09/20 12:25:39;;;;;;;4.43;4.03;;;20.10;99.90;;;;;;5030575;28;20041;-77
2021/09/20 12:28:14;;;;;;;8.45;4.20;;;20.40;99.90;;;;;;5031775;28;20025;-79
2021/09/20 12:30:56;;;;;;;5.13;4.50;;;20.60;99.90;;;;;;5031053;28;20034;-76
2021/09/20 12:33:22;;;;;;;3.92;3.63;;;20.80;99.90;;;;;;5030404;28;20026;-74
2021/09/20 12:35:47;;;;;;;5.18;3.60;;;20.90;99.90;;;;;;5036367;22;20054;-80
2021/09/20 12:38:14;;;;;;;3.85;3.53;;;20.90;99.90;;;;;;4998955;28;20026;-80
2021/09/20 12:40:40;;;;;;;4.68;3.97;;;20.90;99.90;;;;;;4993117;28;20084;-81
2021/09/20 12:43:11;;;;;;;4.05;3.75;;;20.90;99.90;;;;;;4993423;28;20031;-80
2021/09/20 12:45:44;;;;;;;3.72;3.53;;;21.20;99.90;;;;;;4998937;28;20027;-79
2021/09/20 12:48:14;;;;;;;3.35;3.13;;;21.00;99.90;;;;;;4996503;28;20030;-82
2021/09/20 12:50:42;;;;;;;5.07;3.55;;;20.60;99.90;;;;;;4994715;28;20026;-82